Time;durP1;ratioP1;P1;durP2;ratioP2;P2;SDS_P1;SDS_P2;PMS_P1;PMS_P2;Temp;Humidity;BMP_temperature;BMP_pressure;BME280_temperature;BME280_humidity;BME280_pressure;Samples;Min_cycle;Max_cycle;Signal;HPM_P1;HPM_P2
2023/08/01 00:01:23;;;;;;;187.50;53.70;;;;;;;;;;5052660;28;20437;-49
2023/08/01 00:03:49;;;;;;;188.63;54.77;;;;;;;;;;5052866;28;20906;-51
2023/08/01 00:06:15;;;;;;;187.43;54.20;;;;;;;;;;5052873;28;20747;-51
2023/08/01 00:08:41;;;;;;;189.33;55.77;;;;;;;;;;5052848;28;20409;-51
2023/08/01 00:11:07;;;;;;;189.17;55.27;;;;;;;;;;5052542;28;20786;-51
2023/08/01 00:13:33;;;;;;;186.60;53.05;;;;;;;;;;5052698;28;20412;-52
2023/08/01 00:15:59;;;;;;;187.50;54.20;;;;;;;;;;5052729;28;20199;-51
2023/08/01 00:18:25;;;;;;;189.03;54.47;;;;;;;;;;5052621;28;20427;-51
2023/08/01 00:20:53;;;;;;;190.70;56.17;;;;;;;;;;5052493;28;20425;-49
2023/08/01 00:23:19;;;;;;;188.57;55.58;;;;;;;;;;5049828;28;20416;-51
2023/08/01 00:25:51;;;;;;;189.67;55.87;;;;;;;;;;5052502;28;20175;-49
2023/08/01 00:28:17;;;;;;;189.10;55.15;;;;;;;;;;5052689;28;20812;-51
2023/08/01 00:30:43;;;;;;;188.57;55.03;;;;;;;;;;5052314;28;20203;-50
2023/08/01 00:33:09;;;;;;;188.57;55.17;;;;;;;;;;5051544;28;20420;-49
2023/08/01 00:35:34;;;;;;;187.23;53.70;;;;;;;;;;5052259;28;20515;-52
2023/08/01 00:38:00;;;;;;;191.67;56.30;;;;;;;;;;5052180;28;20468;-51
2023/08/01 00:40:33;;;;;;;189.67;56.07;;;;;;;;;;5051599;28;20824;-50
2023/08/01 00:42:59;;;;;;;192.32;56.17;;;;;;;;;;5046821;28;20451;-49
2023/08/01 00:45:25;;;;;;;191.07;56.77;;;;;;;;;;5049745;28;20183;-50
2023/08/01 00:47:52;;;;;;;188.95;54.47;;;;;;;;;;5051243;28;20412;-51
2023/08/01 00:50:20;;;;;;;188.63;55.08;;;;;;;;;;5048971;28;20246;-51
2023/08/01 00:52:46;;;;;;;188.75;54.75;;;;;;;;;;5048011;28;20172;-51
2023/08/01 00:55:12;;;;;;;188.02;54.10;;;;;;;;;;5051974;28;20541;-52
2023/08/01 00:57:38;;;;;;;187.20;54.20;;;;;;;;;;5052173;28;20546;-50
2023/08/01 01:00:05;;;;;;;188.03;53.50;;;;;;;;;;5051631;28;20208;-51
2023/08/01 01:02:31;;;;;;;195.30;60.22;;;;;;;;;;5047308;28;20807;-51
2023/08/01 01:04:57;;;;;;;190.50;55.72;;;;;;;;;;5051185;28;20176;-51
2023/08/01 01:07:24;;;;;;;191.27;56.17;;;;;;;;;;5048345;28;20678;-50
2023/08/01 01:09:51;;;;;;;195.13;60.03;;;;;;;;;;5049731;28;20451;-51
2023/08/01 01:12:16;;;;;;;189.50;55.22;;;;;;;;;;5048934;28;20190;-51
2023/08/01 01:14:42;;;;;;;189.67;55.67;;;;;;;;;;5051577;28;20201;-52
2023/08/01 01:17:08;;;;;;;189.07;54.60;;;;;;;;;;5051763;28;20402;-52
2023/08/01 01:19:34;;;;;;;189.37;55.57;;;;;;;;;;5049792;28;20431;-50
2023/08/01 01:22:01;;;;;;;188.47;54.37;;;;;;;;;;5048222;28;20402;-51
2023/08/01 01:24:27;;;;;;;187.35;53.28;;;;;;;;;;5051541;28;20827;-52
2023/08/01 01:26:54;;;;;;;188.43;54.80;;;;;;;;;;5051554;28;20181;-52
2023/08/01 01:29:21;;;;;;;191.00;56.60;;;;;;;;;;5051464;28;20175;-50
2023/08/01 01:31:48;;;;;;;188.95;55.03;;;;;;;;;;5051508;28;20279;-52
2023/08/01 01:34:14;;;;;;;190.65;55.80;;;;;;;;;;5049628;28;20685;-50
2023/08/01 01:36:40;;;;;;;187.97;54.47;;;;;;;;;;5051608;28;20253;-51
2023/08/01 01:39:06;;;;;;;190.97;55.47;;;;;;;;;;5051507;28;20401;-52
2023/08/01 01:41:32;;;;;;;188.97;55.37;;;;;;;;;;5051062;28;20986;-51
2023/08/01 01:43:58;;;;;;;190.10;55.10;;;;;;;;;;5051404;28;20966;-52
2023/08/01 01:46:24;;;;;;;190.23;55.00;;;;;;;;;;5049971;28;20688;-50
2023/08/01 01:48:50;;;;;;;188.97;54.60;;;;;;;;;;5051324;28;20402;-51
2023/08/01 01:51:16;;;;;;;187.37;53.80;;;;;;;;;;5047934;28;20437;-53
2023/08/01 01:53:42;;;;;;;190.73;56.53;;;;;;;;;;5054041;28;20416;-51
2023/08/01 01:56:08;;;;;;;190.37;55.27;;;;;;;;;;5055376;28;20487;-52
2023/08/01 01:58:34;;;;;;;188.15;54.05;;;;;;;;;;5047398;28;20817;-52
2023/08/01 02:01:00;;;;;;;187.40;53.67;;;;;;;;;;5053540;28;20205;-51
2023/08/01 02:03:26;;;;;;;189.77;56.80;;;;;;;;;;5054999;28;20430;-50
2023/08/01 02:05:52;;;;;;;186.57;54.30;;;;;;;;;;5055202;28;20924;-50
2023/08/01 02:08:18;;;;;;;187.77;54.43;;;;;;;;;;5055090;28;20415;-49
2023/08/01 02:10:44;;;;;;;189.67;55.77;;;;;;;;;;5048632;28;20475;-51
2023/08/01 02:13:09;;;;;;;188.07;54.57;;;;;;;;;;5055090;28;20424;-50
2023/08/01 02:15:35;;;;;;;190.53;55.17;;;;;;;;;;5053547;28;20514;-51
2023/08/01 02:18:01;;;;;;;191.77;56.60;;;;;;;;;;5054902;28;20409;-52
2023/08/01 02:20:28;;;;;;;190.20;55.67;;;;;;;;;;5054520;28;20441;-50
2023/08/01 02:22:54;;;;;;;188.20;54.13;;;;;;;;;;5054902;28;20927;-51
2023/08/01 02:25:20;;;;;;;189.90;55.47;;;;;;;;;;5054760;28;20200;-50
2023/08/01 02:27:46;;;;;;;187.77;54.57;;;;;;;;;;5054897;28;20402;-51
2023/08/01 02:30:12;;;;;;;186.30;53.17;;;;;;;;;;5053239;28;20783;-49
2023/08/01 02:32:38;;;;;;;187.70;54.30;;;;;;;;;;5049402;28;20432;-50
2023/08/01 02:35:04;;;;;;;190.07;54.97;;;;;;;;;;5054599;28;20468;-49
2023/08/01 02:37:30;;;;;;;190.27;56.08;;;;;;;;;;5048251;28;20434;-49
2023/08/01 02:39:56;;;;;;;187.27;53.67;;;;;;;;;;5054301;28;20189;-51
2023/08/01 02:42:22;;;;;;;189.17;55.00;;;;;;;;;;5053208;28;20821;-51
2023/08/01 02:44:48;;;;;;;187.47;54.27;;;;;;;;;;5054537;28;20815;-50
2023/08/01 02:47:14;;;;;;;185.47;52.97;;;;;;;;;;5054302;28;20511;-51
2023/08/01 02:49:40;;;;;;;191.13;57.33;;;;;;;;;;5054051;28;20466;-51
2023/08/01 02:52:06;;;;;;;187.37;53.87;;;;;;;;;;5054396;28;20411;-52
2023/08/01 02:54:32;;;;;;;187.15;53.80;;;;;;;;;;5054319;28;20455;-50
2023/08/01 02:56:58;;;;;;;186.77;53.27;;;;;;;;;;5053117;28;20188;-50
2023/08/01 02:59:24;;;;;;;187.70;54.13;;;;;;;;;;5053972;28;20409;-51
2023/08/01 03:01:50;;;;;;;188.67;54.33;;;;;;;;;;5054466;28;20921;-51
2023/08/01 03:04:16;;;;;;;188.37;54.50;;;;;;;;;;5053945;28;20747;-51
2023/08/01 03:06:42;;;;;;;187.07;53.78;;;;;;;;;;5054095;28;20502;-51
2023/08/01 03:09:08;;;;;;;188.33;55.07;;;;;;;;;;5046349;28;20272;-50
2023/08/01 03:11:37;;;;;;;186.38;53.75;;;;;;;;;;5052471;28;20777;-51
2023/08/01 03:14:04;;;;;;;188.57;55.10;;;;;;;;;;5053780;28;20676;-51
2023/08/01 03:16:30;;;;;;;190.73;56.47;;;;;;;;;;5053804;28;20211;-50
2023/08/01 03:18:56;;;;;;;188.45;54.13;;;;;;;;;;5053963;28;20648;-49
2023/08/01 03:21:22;;;;;;;190.40;56.08;;;;;;;;;;5053401;28;20214;-50
2023/08/01 03:23:48;;;;;;;187.03;54.07;;;;;;;;;;5053726;28;20165;-51
2023/08/01 03:26:15;;;;;;;188.93;55.90;;;;;;;;;;5052581;28;20398;-51
2023/08/01 03:28:41;;;;;;;187.23;53.38;;;;;;;;;;5053550;28;20406;-48
2023/08/01 03:31:07;;;;;;;184.90;52.27;;;;;;;;;;5053323;28;20204;-51
2023/08/01 03:33:34;;;;;;;190.87;57.00;;;;;;;;;;5053478;28;20451;-50
2023/08/01 03:36:00;;;;;;;191.93;56.63;;;;;;;;;;5053380;28;20471;-49
2023/08/01 03:38:25;;;;;;;190.77;55.17;;;;;;;;;;5053464;28;20261;-49
2023/08/01 03:40:51;;;;;;;188.73;53.97;;;;;;;;;;5053257;28;20275;-51
2023/08/01 03:43:23;;;;;;;191.20;55.67;;;;;;;;;;5053260;28;20413;-52
2023/08/01 03:45:49;;;;;;;187.40;53.60;;;;;;;;;;5053686;28;20175;-51
2023/08/01 03:48:15;;;;;;;186.10;53.30;;;;;;;;;;5053835;28;20181;-51
2023/08/01 03:50:41;;;;;;;188.50;55.17;;;;;;;;;;5052911;28;20799;-49
2023/08/01 03:53:07;;;;;;;188.15;53.75;;;;;;;;;;5052108;28;20401;-49
2023/08/01 03:55:33;;;;;;;189.77;54.63;;;;;;;;;;5053011;28;20198;-49
2023/08/01 03:57:59;;;;;;;189.85;55.20;;;;;;;;;;5053001;28;20171;-50
2023/08/01 04:00:26;;;;;;;189.40;54.83;;;;;;;;;;5052703;28;20193;-50
2023/08/01 04:02:51;;;;;;;187.90;54.65;;;;;;;;;;5053034;28;20175;-52
2023/08/01 04:05:18;;;;;;;188.67;54.37;;;;;;;;;;5052859;28;20229;-52
2023/08/01 04:07:44;;;;;;;188.43;54.13;;;;;;;;;;5051903;28;20420;-51
2023/08/01 04:10:10;;;;;;;188.87;54.63;;;;;;;;;;5052713;28;20202;-49
2023/08/01 04:12:36;;;;;;;188.30;54.37;;;;;;;;;;5052696;28;20426;-51
2023/08/01 04:15:02;;;;;;;188.45;54.63;;;;;;;;;;5047652;28;20508;-52
2023/08/01 04:17:29;;;;;;;188.77;54.43;;;;;;;;;;5051320;28;20636;-51
2023/08/01 04:19:55;;;;;;;192.38;57.33;;;;;;;;;;5052378;28;20513;-50
2023/08/01 04:22:21;;;;;;;187.33;54.37;;;;;;;;;;5051674;28;20271;-51
2023/08/01 04:24:47;;;;;;;189.03;54.93;;;;;;;;;;5052645;28;20424;-51
2023/08/01 04:27:13;;;;;;;188.80;54.17;;;;;;;;;;5052432;28;20428;-51
2023/08/01 04:29:39;;;;;;;189.47;54.70;;;;;;;;;;5052163;28;20461;-47
2023/08/01 04:32:05;;;;;;;188.60;54.10;;;;;;;;;;5052513;28;20420;-51
2023/08/01 04:34:31;;;;;;;189.55;55.08;;;;;;;;;;5051188;28;20458;-51
2023/08/01 04:36:57;;;;;;;190.77;55.93;;;;;;;;;;5051312;28;20168;-49
2023/08/01 04:39:23;;;;;;;191.40;55.50;;;;;;;;;;5049602;28;20454;-49
2023/08/01 04:41:49;;;;;;;188.80;54.10;;;;;;;;;;5051687;28;20900;-50
2023/08/01 04:44:15;;;;;;;188.93;53.65;;;;;;;;;;5052023;28;20449;-49
2023/08/01 04:46:41;;;;;;;189.73;54.53;;;;;;;;;;5052245;28;20187;-49
2023/08/01 04:49:08;;;;;;;188.13;53.65;;;;;;;;;;5051583;28;20175;-51
2023/08/01 04:51:34;;;;;;;191.63;56.03;;;;;;;;;;5051684;28;20416;-50
2023/08/01 04:53:59;;;;;;;189.43;54.77;;;;;;;;;;5051991;28;20195;-51
2023/08/01 04:56:25;;;;;;;191.37;56.20;;;;;;;;;;5052037;28;20413;-51
2023/08/01 04:58:51;;;;;;;188.77;54.00;;;;;;;;;;5052028;28;20466;-51
2023/08/01 05:01:17;;;;;;;189.70;54.00;;;;;;;;;;5051844;28;20432;-52
2023/08/01 05:03:43;;;;;;;188.33;53.97;;;;;;;;;;5051023;28;20931;-51
2023/08/01 05:06:09;;;;;;;188.33;53.30;;;;;;;;;;5051990;28;20925;-49
2023/08/01 05:08:35;;;;;;;188.63;54.30;;;;;;;;;;5051814;28;20937;-51
2023/08/01 05:11:01;;;;;;;188.77;53.97;;;;;;;;;;5051581;28;20963;-52
2023/08/01 05:13:27;;;;;;;189.67;54.53;;;;;;;;;;5050601;28;20418;-52
2023/08/01 05:15:53;;;;;;;190.80;54.97;;;;;;;;;;5045572;28;20455;-51
2023/08/01 05:18:19;;;;;;;188.40;54.10;;;;;;;;;;5050971;28;20249;-51
2023/08/01 05:20:45;;;;;;;189.67;55.10;;;;;;;;;;5051321;28;20436;-51
2023/08/01 05:23:11;;;;;;;190.27;56.20;;;;;;;;;;5051548;28;20405;-51
2023/08/01 05:25:37;;;;;;;188.02;53.65;;;;;;;;;;5051515;28;20406;-51
2023/08/01 05:28:03;;;;;;;187.80;53.93;;;;;;;;;;5051581;28;20186;-50
2023/08/01 05:30:29;;;;;;;191.27;56.50;;;;;;;;;;5050529;28;21020;-51
2023/08/01 05:32:55;;;;;;;190.30;55.78;;;;;;;;;;5051633;28;20205;-52
2023/08/01 05:35:21;;;;;;;189.40;54.38;;;;;;;;;;5049020;28;20270;-51
2023/08/01 05:37:47;;;;;;;188.03;53.60;;;;;;;;;;5047397;28;20274;-52
2023/08/01 05:40:13;;;;;;;188.77;54.17;;;;;;;;;;5051088;28;20418;-52
2023/08/01 05:42:39;;;;;;;188.48;53.85;;;;;;;;;;5043294;28;20542;-51
2023/08/01 05:45:05;;;;;;;187.45;53.60;;;;;;;;;;5050932;28;20536;-51
2023/08/01 05:47:31;;;;;;;190.88;55.88;;;;;;;;;;5051857;28;20179;-50
2023/08/01 05:49:57;;;;;;;190.95;56.25;;;;;;;;;;5051038;28;20699;-50
2023/08/01 05:52:24;;;;;;;189.60;54.05;;;;;;;;;;5051410;28;20182;-50
2023/08/01 05:54:50;;;;;;;190.63;54.58;;;;;;;;;;5051175;28;20195;-50
2023/08/01 05:57:16;;;;;;;188.07;53.53;;;;;;;;;;5051539;28;20177;-49
2023/08/01 05:59:42;;;;;;;190.40;55.67;;;;;;;;;;5050358;28;20437;-52
2023/08/01 06:02:07;;;;;;;190.60;55.90;;;;;;;;;;5051339;28;20427;-52
2023/08/01 06:04:33;;;;;;;189.87;54.27;;;;;;;;;;5051153;28;20182;-52
2023/08/01 06:06:59;;;;;;;190.40;54.90;;;;;;;;;;5051088;28;20421;-52
2023/08/01 06:09:26;;;;;;;190.17;55.13;;;;;;;;;;5050961;28;20414;-51
2023/08/01 06:11:52;;;;;;;188.32;54.05;;;;;;;;;;5051129;28;20419;-52
2023/08/01 06:14:18;;;;;;;188.90;54.60;;;;;;;;;;5050521;28;20195;-51
2023/08/01 06:16:44;;;;;;;188.23;53.47;;;;;;;;;;5051141;28;20886;-51
2023/08/01 06:19:10;;;;;;;188.40;54.47;;;;;;;;;;5050936;28;20639;-50
2023/08/01 06:21:36;;;;;;;188.50;54.17;;;;;;;;;;5050738;28;20197;-51
2023/08/01 06:24:02;;;;;;;187.13;54.37;;;;;;;;;;5045733;28;20431;-51
2023/08/01 06:26:28;;;;;;;188.67;53.87;;;;;;;;;;5049153;28;20412;-51
2023/08/01 06:28:54;;;;;;;190.75;56.55;;;;;;;;;;5045381;28;20499;-51
2023/08/01 06:31:21;;;;;;;190.70;55.67;;;;;;;;;;5050614;28;20192;-51
2023/08/01 06:33:47;;;;;;;190.10;54.85;;;;;;;;;;5047003;28;20771;-49
2023/08/01 06:36:13;;;;;;;189.27;56.23;;;;;;;;;;5050726;28;20231;-52
2023/08/01 06:38:39;;;;;;;187.23;53.83;;;;;;;;;;5044808;28;20404;-50
2023/08/01 06:41:06;;;;;;;190.25;56.80;;;;;;;;;;5053783;28;20194;-50
2023/08/01 06:43:32;;;;;;;189.48;55.92;;;;;;;;;;5054490;28;20181;-50
2023/08/01 06:45:58;;;;;;;189.87;55.47;;;;;;;;;;5050741;28;20187;-50
2023/08/01 06:48:24;;;;;;;192.10;56.77;;;;;;;;;;5051974;28;20781;-50
2023/08/01 06:50:50;;;;;;;192.77;58.30;;;;;;;;;;5052063;28;20809;-52
2023/08/01 06:53:15;;;;;;;188.67;54.87;;;;;;;;;;5052329;28;20417;-51
2023/08/01 06:55:41;;;;;;;193.37;56.90;;;;;;;;;;5051252;28;20458;-50
2023/08/01 06:58:09;;;;;;;191.30;55.50;;;;;;;;;;5052499;28;20435;-50
2023/08/01 07:00:34;;;;;;;190.50;55.07;;;;;;;;;;5054141;28;20496;-51
2023/08/01 07:03:00;;;;;;;188.57;54.37;;;;;;;;;;5053995;28;20412;-50
2023/08/01 07:05:26;;;;;;;190.70;56.83;;;;;;;;;;5053811;28;20407;-51
2023/08/01 07:07:52;;;;;;;188.73;53.77;;;;;;;;;;5054232;28;20412;-52
2023/08/01 07:10:18;;;;;;;188.70;54.50;;;;;;;;;;5053629;28;20447;-51
2023/08/01 07:12:44;;;;;;;187.97;54.37;;;;;;;;;;5053993;28;20415;-50
2023/08/01 07:15:10;;;;;;;188.83;55.77;;;;;;;;;;5050199;28;20460;-50
2023/08/01 07:17:36;;;;;;;188.90;54.55;;;;;;;;;;5053721;28;21090;-51
2023/08/01 07:20:02;;;;;;;188.53;54.80;;;;;;;;;;5052401;28;20203;-51
2023/08/01 07:22:28;;;;;;;191.48;55.92;;;;;;;;;;5053743;28;20897;-52
2023/08/01 07:24:55;;;;;;;190.70;57.07;;;;;;;;;;5053248;28;20173;-51
2023/08/01 07:27:21;;;;;;;188.63;56.33;;;;;;;;;;5053794;28;20456;-52
2023/08/01 07:29:47;;;;;;;190.32;56.28;;;;;;;;;;5053557;28;20197;-51
2023/08/01 07:32:14;;;;;;;188.18;54.72;;;;;;;;;;5053510;28;20183;-50
2023/08/01 07:34:40;;;;;;;190.50;56.17;;;;;;;;;;5052495;28;20568;-50
2023/08/01 07:37:06;;;;;;;189.27;54.90;;;;;;;;;;5050823;28;20182;-51
2023/08/01 07:39:34;;;;;;;190.50;55.67;;;;;;;;;;5053323;28;20530;-50
2023/08/01 07:42:00;;;;;;;190.90;56.25;;;;;;;;;;5049340;28;20411;-51
2023/08/01 07:44:26;;;;;;;189.27;55.47;;;;;;;;;;5051591;28;20256;-52
2023/08/01 07:46:51;;;;;;;187.37;55.00;;;;;;;;;;5053449;28;20397;-52
2023/08/01 07:49:18;;;;;;;187.17;54.97;;;;;;;;;;5052031;28;20418;-51
2023/08/01 07:51:44;;;;;;;186.13;53.85;;;;;;;;;;5052237;28;20449;-51
2023/08/01 07:54:10;;;;;;;187.07;54.27;;;;;;;;;;5049111;28;20219;-49
2023/08/01 07:56:36;;;;;;;186.07;54.50;;;;;;;;;;5053205;28;20777;-51
2023/08/01 07:59:02;;;;;;;187.87;55.83;;;;;;;;;;5053098;28;20178;-50
2023/08/01 08:01:28;;;;;;;188.43;54.35;;;;;;;;;;5052012;28;20465;-50
2023/08/01 08:03:54;;;;;;;188.20;54.80;;;;;;;;;;5052947;28;20207;-51
2023/08/01 08:06:24;;;;;;;187.83;54.17;;;;;;;;;;5053072;28;20444;-51
2023/08/01 08:08:50;;;;;;;190.05;55.20;;;;;;;;;;5052982;28;20409;-51
2023/08/01 08:11:16;;;;;;;188.40;53.40;;;;;;;;;;5052662;28;20196;-51
2023/08/01 08:13:42;;;;;;;193.40;57.78;;;;;;;;;;5052969;28;20408;-51
2023/08/01 08:16:08;;;;;;;192.65;56.15;;;;;;;;;;5052052;28;20195;-50
2023/08/01 08:18:34;;;;;;;192.67;56.77;;;;;;;;;;5052734;28;20190;-50
2023/08/01 08:21:00;;;;;;;194.97;58.27;;;;;;;;;;5052404;28;20468;-49
2023/08/01 08:23:26;;;;;;;192.40;55.67;;;;;;;;;;5052649;28;20420;-52
2023/08/01 08:25:52;;;;;;;191.87;54.47;;;;;;;;;;5052660;28;20181;-51
2023/08/01 08:28:28;;;;;;;192.85;56.05;;;;;;;;;;5052589;28;20492;-51
2023/08/01 08:30:54;;;;;;;193.90;57.60;;;;;;;;;;5051565;28;20241;-52
2023/08/01 08:33:21;;;;;;;192.10;55.70;;;;;;;;;;5052431;28;20419;-52
2023/08/01 08:35:47;;;;;;;191.27;56.40;;;;;;;;;;5052302;28;20497;-51
2023/08/01 08:38:13;;;;;;;193.40;56.87;;;;;;;;;;5047262;28;20842;-51
2023/08/01 08:40:41;;;;;;;194.13;58.13;;;;;;;;;;5049838;28;20496;-51
2023/08/01 08:43:08;;;;;;;192.97;56.00;;;;;;;;;;5048085;28;20449;-52
2023/08/01 08:45:35;;;;;;;195.17;60.67;;;;;;;;;;5051647;28;20840;-50
2023/08/01 08:48:02;;;;;;;195.77;58.93;;;;;;;;;;5052285;28;20440;-52
2023/08/01 08:50:30;;;;;;;192.67;57.17;;;;;;;;;;5051778;28;20818;-49
2023/08/01 08:52:57;;;;;;;194.33;59.30;;;;;;;;;;5052364;28;20843;-49
2023/08/01 08:55:23;;;;;;;196.10;59.43;;;;;;;;;;5051956;28;20510;-51
2023/08/01 08:57:52;;;;;;;194.27;57.27;;;;;;;;;;5051749;28;20401;-50
2023/08/01 09:00:18;;;;;;;193.67;57.67;;;;;;;;;;5051191;28;20831;-51
2023/08/01 09:02:44;;;;;;;196.37;60.10;;;;;;;;;;5051637;28;20397;-51
2023/08/01 09:05:10;;;;;;;194.57;59.57;;;;;;;;;;5051922;28;20467;-51
2023/08/01 09:07:39;;;;;;;192.87;57.30;;;;;;;;;;5051722;28;20413;-51
2023/08/01 09:10:05;;;;;;;193.90;57.37;;;;;;;;;;5051577;28;20451;-50
2023/08/01 09:12:34;;;;;;;196.07;59.77;;;;;;;;;;5051731;28;20788;-51
2023/08/01 09:15:00;;;;;;;193.13;56.93;;;;;;;;;;5051398;28;20553;-51
2023/08/01 09:17:26;;;;;;;194.87;58.07;;;;;;;;;;5051768;28;20829;-51
2023/08/01 09:20:08;;;;;;;197.97;61.77;;;;;;;;;;5051498;28;20447;-52
2023/08/01 09:22:44;;;;;;;191.97;56.37;;;;;;;;;;5051762;28;20396;-51
2023/08/01 09:25:11;;;;;;;193.83;59.00;;;;;;;;;;5047823;28;20443;-51
2023/08/01 09:27:37;;;;;;;193.87;58.50;;;;;;;;;;5051669;28;20419;-51
2023/08/01 09:30:11;;;;;;;195.17;57.47;;;;;;;;;;5050932;28;20439;-49
2023/08/01 09:32:37;;;;;;;194.30;58.60;;;;;;;;;;5051780;28;20416;-51
2023/08/01 09:35:03;;;;;;;194.13;57.90;;;;;;;;;;5051506;28;20456;-51
2023/08/01 09:37:38;;;;;;;193.97;57.00;;;;;;;;;;5046586;28;20411;-50
2023/08/01 09:40:04;;;;;;;195.47;59.47;;;;;;;;;;5051233;28;20460;-52
2023/08/01 09:42:38;;;;;;;195.60;59.27;;;;;;;;;;5051254;28;20466;-52
2023/08/01 09:45:06;;;;;;;193.40;56.47;;;;;;;;;;5051448;28;20444;-52
2023/08/01 09:47:38;;;;;;;197.97;61.80;;;;;;;;;;5052246;28;20420;-48
2023/08/01 09:50:04;;;;;;;194.60;59.53;;;;;;;;;;5050972;28;20476;-48
2023/08/01 09:52:30;;;;;;;193.97;57.50;;;;;;;;;;5051627;28;20746;-48
2023/08/01 09:54:56;;;;;;;194.13;58.35;;;;;;;;;;5051186;28;20965;-49
2023/08/01 09:57:23;;;;;;;199.20;63.63;;;;;;;;;;5051082;28;20180;-51
2023/08/01 09:59:49;;;;;;;202.20;67.27;;;;;;;;;;5049046;28;20430;-48
2023/08/01 10:02:16;;;;;;;194.77;58.47;;;;;;;;;;5051420;28;20488;-48
2023/08/01 10:04:42;;;;;;;198.27;61.47;;;;;;;;;;5051197;28;20915;-48
2023/08/01 10:07:09;;;;;;;196.20;58.97;;;;;;;;;;5051535;28;20463;-49
2023/08/01 10:09:35;;;;;;;193.83;57.17;;;;;;;;;;5051189;28;20464;-52
2023/08/01 10:12:02;;;;;;;197.77;60.87;;;;;;;;;;5050860;28;20496;-49
2023/08/01 10:14:28;;;;;;;196.15;58.67;;;;;;;;;;5053322;28;20973;-49
2023/08/01 10:16:55;;;;;;;197.17;59.00;;;;;;;;;;5055113;28;20253;-51
2023/08/01 10:19:22;;;;;;;199.07;61.30;;;;;;;;;;5054865;28;20424;-48
2023/08/01 10:21:48;;;;;;;198.07;61.93;;;;;;;;;;5054954;28;20665;-49
2023/08/01 10:24:15;;;;;;;197.67;61.73;;;;;;;;;;5054805;28;20432;-51
2023/08/01 10:26:41;;;;;;;196.93;61.47;;;;;;;;;;5055035;28;20397;-50
2023/08/01 10:29:07;;;;;;;195.90;58.57;;;;;;;;;;5054852;28;20899;-50
2023/08/01 10:31:33;;;;;;;193.23;55.83;;;;;;;;;;5054505;28;20436;-49
2023/08/01 10:34:07;;;;;;;197.87;59.30;;;;;;;;;;5054674;28;20816;-50
2023/08/01 10:36:33;;;;;;;195.20;57.40;;;;;;;;;;5054700;28;20432;-48
2023/08/01 10:38:59;;;;;;;196.07;60.03;;;;;;;;;;5054650;28;20920;-50
2023/08/01 10:41:27;;;;;;;195.13;58.27;;;;;;;;;;5054372;28;20525;-48
2023/08/01 10:44:04;;;;;;;194.97;57.40;;;;;;;;;;5053618;28;20419;-49
2023/08/01 10:46:45;;;;;;;196.53;59.40;;;;;;;;;;5051581;28;21129;-49
2023/08/01 10:49:11;;;;;;;196.37;58.90;;;;;;;;;;5043526;28;20423;-50
2023/08/01 10:51:37;;;;;;;194.97;56.97;;;;;;;;;;5052478;28;20806;-48
2023/08/01 10:54:03;;;;;;;193.97;57.30;;;;;;;;;;5054338;28;20848;-49
2023/08/01 10:56:31;;;;;;;198.03;61.37;;;;;;;;;;5054456;28;20431;-48
2023/08/01 10:58:57;;;;;;;198.63;60.77;;;;;;;;;;5054234;28;20799;-50
2023/08/01 11:01:23;;;;;;;196.90;58.70;;;;;;;;;;5054183;28;20528;-48
2023/08/01 11:03:50;;;;;;;197.27;60.50;;;;;;;;;;5054119;28;20498;-49
2023/08/01 11:06:16;;;;;;;199.47;63.07;;;;;;;;;;5053711;28;20488;-48
2023/08/01 11:08:43;;;;;;;198.77;60.50;;;;;;;;;;5033357;28;20496;-48
2023/08/01 11:11:11;;;;;;;199.43;61.67;;;;;;;;;;5051014;28;20446;-49
2023/08/01 11:13:37;;;;;;;197.15;58.80;;;;;;;;;;5052659;28;20977;-49
2023/08/01 11:16:05;;;;;;;196.47;59.33;;;;;;;;;;5053978;28;20203;-49
2023/08/01 11:18:40;;;;;;;200.70;62.23;;;;;;;;;;5053814;28;20822;-49
2023/08/01 11:21:06;;;;;;;196.63;59.03;;;;;;;;;;5053669;28;20436;-48
2023/08/01 11:23:32;;;;;;;194.83;57.23;;;;;;;;;;5053910;28;20406;-48
2023/08/01 11:25:58;;;;;;;196.07;57.80;;;;;;;;;;5053597;28;20447;-49
2023/08/01 11:28:25;;;;;;;196.13;59.17;;;;;;;;;;5053740;28;20416;-49
2023/08/01 11:30:51;;;;;;;196.00;56.87;;;;;;;;;;5053423;28;20955;-51
2023/08/01 11:33:20;;;;;;;195.93;58.53;;;;;;;;;;5053982;28;20421;-51
2023/08/01 11:35:46;;;;;;;194.50;57.33;;;;;;;;;;5053527;28;20599;-48
2023/08/01 11:38:12;;;;;;;196.57;59.57;;;;;;;;;;5053743;28;20765;-48
2023/08/01 11:40:38;;;;;;;192.07;55.17;;;;;;;;;;5053140;28;20526;-49
2023/08/01 11:43:04;;;;;;;194.63;56.83;;;;;;;;;;5053540;28;20978;-49
2023/08/01 11:45:30;;;;;;;195.30;57.03;;;;;;;;;;5053562;28;20179;-50
2023/08/01 11:47:56;;;;;;;194.97;56.90;;;;;;;;;;5053401;28;20812;-51
2023/08/01 11:50:23;;;;;;;193.23;56.22;;;;;;;;;;5053016;28;20459;-48
2023/08/01 11:52:49;;;;;;;194.48;56.47;;;;;;;;;;5051762;28;20172;-48
2023/08/01 11:55:26;;;;;;;194.73;58.55;;;;;;;;;;5052977;28;20202;-50
2023/08/01 11:57:58;;;;;;;194.30;56.65;;;;;;;;;;5053436;28;20590;-48
2023/08/01 12:00:25;;;;;;;196.20;57.30;;;;;;;;;;5052793;28;20197;-48
2023/08/01 12:02:51;;;;;;;194.25;56.90;;;;;;;;;;5053162;28;20540;-50
2023/08/01 12:05:24;;;;;;;193.93;57.00;;;;;;;;;;5052731;28;20657;-48
2023/08/01 12:07:50;;;;;;;193.43;56.05;;;;;;;;;;5053374;28;20176;-51
2023/08/01 12:10:16;;;;;;;195.95;59.08;;;;;;;;;;5052859;28;20196;-48
2023/08/01 12:12:46;;;;;;;193.37;56.20;;;;;;;;;;5052967;28;20306;-49
2023/08/01 12:15:13;;;;;;;193.27;56.50;;;;;;;;;;5052726;28;20459;-51
2023/08/01 12:17:39;;;;;;;192.00;55.37;;;;;;;;;;5044945;28;20405;-48
2023/08/01 12:20:05;;;;;;;194.93;58.00;;;;;;;;;;5050941;28;20812;-49
2023/08/01 12:22:31;;;;;;;196.13;58.97;;;;;;;;;;5052709;28;20414;-48
2023/08/01 12:24:58;;;;;;;194.77;57.10;;;;;;;;;;5052654;28;20409;-47
2023/08/01 12:27:24;;;;;;;198.70;62.07;;;;;;;;;;5052644;28;20435;-48
2023/08/01 12:29:49;;;;;;;197.17;59.53;;;;;;;;;;5052388;28;20833;-51
2023/08/01 12:32:16;;;;;;;194.60;58.10;;;;;;;;;;5052531;28;20417;-48
2023/08/01 12:34:42;;;;;;;195.73;58.07;;;;;;;;;;5050930;28;21182;-48
2023/08/01 12:37:07;;;;;;;195.83;58.37;;;;;;;;;;5048913;28;20491;-48
2023/08/01 12:39:33;;;;;;;195.03;56.67;;;;;;;;;;5052330;28;21018;-48
2023/08/01 12:41:59;;;;;;;196.57;59.10;;;;;;;;;;5052565;28;20904;-48
2023/08/01 12:44:25;;;;;;;198.30;61.60;;;;;;;;;;5052215;28;20490;-48
2023/08/01 12:46:51;;;;;;;195.60;59.57;;;;;;;;;;5052362;28;20408;-49
2023/08/01 12:49:19;;;;;;;198.00;60.57;;;;;;;;;;5050513;28;20411;-51
2023/08/01 12:51:45;;;;;;;194.83;57.27;;;;;;;;;;5052129;28;20506;-48
2023/08/01 12:54:11;;;;;;;195.67;57.13;;;;;;;;;;5052140;28;20413;-48
2023/08/01 12:56:37;;;;;;;197.73;60.70;;;;;;;;;;5052184;28;20455;-48
2023/08/01 12:59:03;;;;;;;193.33;56.43;;;;;;;;;;5052173;28;20412;-48
2023/08/01 13:01:29;;;;;;;197.07;58.63;;;;;;;;;;5050351;28;20436;-50
2023/08/01 13:03:55;;;;;;;196.77;59.57;;;;;;;;;;5051869;28;20500;-49
2023/08/01 13:06:21;;;;;;;196.60;59.57;;;;;;;;;;5052239;28;20412;-49
2023/08/01 13:08:47;;;;;;;197.57;59.47;;;;;;;;;;5051954;28;20416;-50
2023/08/01 13:11:14;;;;;;;194.80;59.80;;;;;;;;;;5051538;28;20436;-52
2023/08/01 13:13:41;;;;;;;194.30;57.10;;;;;;;;;;5043806;28;20412;-50
2023/08/01 13:16:07;;;;;;;196.53;58.57;;;;;;;;;;5050623;28;20551;-48
2023/08/01 13:18:33;;;;;;;194.67;57.87;;;;;;;;;;5051665;28;20980;-48
2023/08/01 13:20:59;;;;;;;194.43;57.67;;;;;;;;;;5051507;28;20417;-49
2023/08/01 13:23:25;;;;;;;197.87;60.43;;;;;;;;;;5051730;28;20405;-48
2023/08/01 13:25:51;;;;;;;197.77;61.70;;;;;;;;;;5050416;28;20849;-48
2023/08/01 13:28:17;;;;;;;196.63;60.40;;;;;;;;;;5035244;28;20452;-49
2023/08/01 13:30:43;;;;;;;196.40;58.37;;;;;;;;;;5045083;28;20526;-48
2023/08/01 13:33:09;;;;;;;199.60;61.17;;;;;;;;;;5051784;28;20469;-51
2023/08/01 13:35:35;;;;;;;199.10;60.40;;;;;;;;;;5051485;28;20530;-51
2023/08/01 13:38:03;;;;;;;201.60;63.27;;;;;;;;;;5051516;28;20406;-50
2023/08/01 13:40:29;;;;;;;200.30;62.00;;;;;;;;;;5051143;28;20448;-49
2023/08/01 13:42:55;;;;;;;199.27;60.83;;;;;;;;;;5051749;28;20487;-48
2023/08/01 13:45:21;;;;;;;199.43;61.07;;;;;;;;;;5051411;28;20868;-50
2023/08/01 13:47:47;;;;;;;200.77;63.97;;;;;;;;;;5051557;28;20511;-51
2023/08/01 13:50:13;;;;;;;199.20;62.77;;;;;;;;;;5054936;28;20447;-55
2023/08/01 13:52:39;;;;;;;199.80;63.50;;;;;;;;;;5040739;28;20441;-48
2023/08/01 13:55:06;;;;;;;200.77;65.73;;;;;;;;;;5055419;28;20467;-49
2023/08/01 13:57:32;;;;;;;198.70;63.33;;;;;;;;;;5055447;28;20405;-49
2023/08/01 13:59:58;;;;;;;200.03;64.37;;;;;;;;;;5054970;28;20485;-48